Time;durP1;ratioP1;P1;durP2;ratioP2;P2;SDS_P1;SDS_P2;PMS_P1;PMS_P2;Temp;Humidity;BMP_temperature;BMP_pressure;BME280_temperature;BME280_humidity;BME280_pressure;Samples;Min_cycle;Max_cycle;Signal;HPM_P1;HPM_P2
2022/08/14 00:02:26;;;;;;;2.43;2.27;;;28.80;31.00;;;;;;4971007;28;20490;-72
2022/08/14 00:05:05;;;;;;;2.47;2.20;;;28.80;31.00;;;;;;4956584;28;20481;-72
2022/08/14 00:07:35;;;;;;;2.60;2.40;;;28.80;31.00;;;;;;4970996;28;20475;-72
2022/08/14 00:10:13;;;;;;;2.03;1.70;;;28.80;30.90;;;;;;4970161;28;21005;-72
2022/08/14 00:13:01;;;;;;;2.20;2.10;;;28.70;30.80;;;;;;4975924;28;20966;-72
2022/08/14 00:15:37;;;;;;;2.50;2.40;;;28.70;30.60;;;;;;4973738;28;21020;-72
2022/08/14 00:18:18;;;;;;;2.60;2.40;;;28.70;30.70;;;;;;4958605;28;20737;-72
2022/08/14 00:21:07;;;;;;;2.20;2.00;;;28.70;30.70;;;;;;4954160;28;20516;-72
2022/08/14 00:23:41;;;;;;;2.80;2.53;;;28.70;30.80;;;;;;4968198;28;20459;-71
2022/08/14 00:26:10;;;;;;;1.93;1.83;;;28.70;30.90;;;;;;4953891;28;20439;-72
2022/08/14 00:28:51;;;;;;;2.57;2.37;;;28.70;31.00;;;;;;4951738;28;20450;-72
2022/08/14 00:31:20;;;;;;;2.20;2.07;;;28.70;30.90;;;;;;4958037;28;20497;-72
2022/08/14 00:34:02;;;;;;;3.07;2.87;;;28.70;30.90;;;;;;4954175;28;20458;-72
2022/08/14 00:36:52;;;;;;;2.50;2.30;;;28.70;30.70;;;;;;4978293;28;20462;-71
2022/08/14 00:39:22;;;;;;;2.60;2.40;;;28.70;30.90;;;;;;4956518;28;21069;-72
2022/08/14 00:41:52;;;;;;;3.00;2.60;;;28.70;30.80;;;;;;4952471;28;20474;-72
2022/08/14 00:44:21;;;;;;;2.47;2.37;;;28.70;30.70;;;;;;4975390;28;20542;-72
2022/08/14 00:47:02;;;;;;;2.30;2.10;;;28.70;31.90;;;;;;4978519;28;21041;-72
2022/08/14 00:49:31;;;;;;;2.03;1.93;;;28.70;30.70;;;;;;4961556;28;20962;-72
2022/08/14 00:52:11;;;;;;;2.77;2.57;;;28.70;30.80;;;;;;4961555;28;20486;-72
2022/08/14 00:54:49;;;;;;;2.20;2.10;;;28.70;30.70;;;;;;4968045;28;20991;-72
2022/08/14 00:57:19;;;;;;;2.70;2.60;;;28.70;30.60;;;;;;4967053;28;20478;-72
2022/08/14 00:59:48;;;;;;;2.37;2.17;;;28.70;30.30;;;;;;4968228;28;20447;-72
2022/08/14 01:02:23;;;;;;;2.77;2.57;;;28.70;30.20;;;;;;4977068;23;21092;-66
2022/08/14 01:04:57;;;;;;;2.90;2.57;;;28.70;30.60;;;;;;4981253;28;21301;-67
2022/08/14 01:07:28;;;;;;;2.40;2.30;;;28.70;30.40;;;;;;4950737;28;20853;-67
2022/08/14 01:10:19;;;;;;;2.13;1.93;;;28.60;30.50;;;;;;4967911;28;20516;-65
2022/08/14 01:12:50;;;;;;;2.87;2.30;;;28.60;30.50;;;;;;4967309;28;20473;-67
2022/08/14 01:15:21;;;;;;;2.33;2.23;;;28.60;30.60;;;;;;4965231;28;20442;-67
2022/08/14 01:21:05;;;;;;;2.77;2.53;;;28.60;30.50;;;;;;4963586;28;20485;-66
2022/08/14 01:23:38;;;;;;;2.60;2.47;;;28.60;30.50;;;;;;4970181;28;20455;-67
2022/08/14 01:26:19;;;;;;;2.60;2.40;;;28.60;30.60;;;;;;4964149;28;20504;-67
2022/08/14 01:29:03;;;;;;;2.63;2.53;;;28.60;30.50;;;;;;4964255;28;21293;-66
2022/08/14 01:31:34;;;;;;;3.03;2.40;;;28.60;30.50;;;;;;4964589;28;20664;-67
2022/08/14 01:34:05;;;;;;;2.60;2.40;;;28.60;30.10;;;;;;4976351;28;20878;-67
2022/08/14 01:36:54;;;;;;;2.50;2.30;;;28.60;30.30;;;;;;4986509;28;20473;-66
2022/08/14 01:39:24;;;;;;;3.50;2.60;;;28.60;30.30;;;;;;4970347;28;20779;-67
2022/08/14 01:41:55;;;;;;;2.63;2.53;;;28.60;30.30;;;;;;4965611;28;20490;-67
2022/08/14 01:44:30;;;;;;;2.60;2.40;;;28.60;30.40;;;;;;4977982;28;20449;-66
2022/08/14 01:47:12;;;;;;;2.93;2.73;;;28.60;30.30;;;;;;4969623;28;20998;-67
2022/08/14 01:49:50;;;;;;;2.63;2.47;;;28.60;30.20;;;;;;4971925;28;20448;-67
2022/08/14 01:52:30;;;;;;;2.33;2.10;;;28.60;30.40;;;;;;4978482;28;20485;-65
2022/08/14 01:55:20;;;;;;;2.10;2.00;;;28.60;30.30;;;;;;4983316;28;20474;-67
2022/08/14 01:57:49;;;;;;;2.30;2.20;;;28.50;30.20;;;;;;4966952;28;20485;-67
2022/08/14 02:00:38;;;;;;;2.60;2.40;;;28.50;30.10;;;;;;4970683;28;20436;-67
2022/08/14 02:03:07;;;;;;;3.17;2.97;;;28.60;30.20;;;;;;4967149;28;20584;-67
2022/08/14 02:05:37;;;;;;;2.33;2.23;;;28.50;30.20;;;;;;4976125;28;20480;-67
2022/08/14 02:08:07;;;;;;;2.07;1.97;;;28.50;30.30;;;;;;4972506;28;20437;-68
2022/08/14 02:10:40;;;;;;;2.53;2.33;;;28.50;30.40;;;;;;4966567;28;20545;-67
2022/08/14 02:13:17;;;;;;;2.20;2.10;;;28.50;31.60;;;;;;4972445;28;20445;-66
2022/08/14 02:15:47;;;;;;;2.40;2.30;;;28.50;30.20;;;;;;4969917;28;20448;-66
2022/08/14 02:18:17;;;;;;;2.87;2.67;;;28.50;30.20;;;;;;4972997;28;20521;-66
2022/08/14 02:20:47;;;;;;;2.33;2.13;;;28.50;30.30;;;;;;4972212;28;20472;-66
2022/08/14 02:23:19;;;;;;;2.63;2.53;;;28.50;30.20;;;;;;4968877;28;20964;-67
2022/08/14 02:26:13;;;;;;;2.70;2.50;;;28.50;30.20;;;;;;4974604;28;20430;-67
2022/08/14 02:28:58;;;;;;;2.80;2.60;;;28.50;30.30;;;;;;4964110;28;20455;-66
2022/08/14 02:31:31;;;;;;;2.83;2.63;;;28.50;30.40;;;;;;4980686;28;20991;-67
2022/08/14 02:34:13;;;;;;;2.30;2.20;;;28.50;30.30;;;;;;4970142;28;20442;-65
2022/08/14 02:36:51;;;;;;;3.17;2.93;;;28.50;30.40;;;;;;4962988;28;20475;-67
2022/08/14 02:39:35;;;;;;;3.10;2.90;;;28.50;30.40;;;;;;4972286;28;20456;-66
2022/08/14 02:42:07;;;;;;;2.90;2.70;;;28.50;30.40;;;;;;4969190;28;20494;-65
2022/08/14 02:44:42;;;;;;;2.80;2.60;;;28.50;30.30;;;;;;4971822;28;20441;-67
2022/08/14 02:47:18;;;;;;;3.60;3.30;;;28.50;30.60;;;;;;4986797;28;20457;-66
2022/08/14 02:49:50;;;;;;;2.60;2.40;;;28.50;30.40;;;;;;4974714;28;20464;-67
2022/08/14 02:52:26;;;;;;;3.43;2.70;;;28.50;30.50;;;;;;4978021;28;20479;-67
2022/08/14 02:55:14;;;;;;;2.87;2.67;;;28.50;30.70;;;;;;4974997;28;20487;-67
2022/08/14 02:57:51;;;;;;;2.47;2.30;;;28.40;30.70;;;;;;4975409;28;20528;-67
2022/08/14 03:00:34;;;;;;;2.43;2.33;;;28.40;30.60;;;;;;4968887;28;20442;-67
2022/08/14 03:03:07;;;;;;;2.63;2.43;;;28.40;30.60;;;;;;4973550;28;20472;-66
2022/08/14 03:05:36;;;;;;;2.53;2.43;;;28.40;30.60;;;;;;4979229;28;20462;-67
2022/08/14 03:08:10;;;;;;;3.10;2.80;;;28.40;30.70;;;;;;4991713;28;20434;-67
2022/08/14 03:10:44;;;;;;;2.17;2.07;;;28.40;31.00;;;;;;4990230;28;20479;-67
2022/08/14 03:13:19;;;;;;;2.43;2.33;;;28.40;31.00;;;;;;4965379;28;20438;-67
2022/08/14 03:15:50;;;;;;;2.17;2.07;;;28.40;30.80;;;;;;4972793;28;20457;-67
2022/08/14 03:18:25;;;;;;;2.47;2.33;;;28.40;31.00;;;;;;4973343;28;20995;-66
2022/08/14 03:21:00;;;;;;;2.60;2.40;;;28.40;30.60;;;;;;4972112;28;20461;-66
2022/08/14 03:23:34;;;;;;;2.73;2.53;;;28.30;30.80;;;;;;4972933;28;20445;-67
2022/08/14 03:26:08;;;;;;;2.90;2.70;;;28.40;30.90;;;;;;4980713;28;20442;-67
2022/08/14 03:28:49;;;;;;;2.83;2.63;;;28.40;31.00;;;;;;4971919;28;20529;-67
2022/08/14 03:31:21;;;;;;;2.40;2.30;;;28.40;30.90;;;;;;4974598;28;20580;-66
2022/08/14 03:33:55;;;;;;;3.07;2.50;;;28.30;30.80;;;;;;4970367;28;20944;-67
2022/08/14 03:36:31;;;;;;;2.30;2.20;;;28.30;30.70;;;;;;4968708;28;20570;-67
2022/08/14 03:39:20;;;;;;;2.23;2.03;;;28.30;31.00;;;;;;4967080;28;20872;-67
2022/08/14 03:41:52;;;;;;;2.40;2.30;;;28.30;30.80;;;;;;4970096;28;20840;-66
2022/08/14 03:44:23;;;;;;;2.63;2.53;;;28.30;30.80;;;;;;4983933;28;20485;-67
2022/08/14 03:47:11;;;;;;;2.70;2.60;;;28.30;30.90;;;;;;4965955;28;20493;-67
2022/08/14 03:49:45;;;;;;;2.60;2.40;;;28.30;30.90;;;;;;4973141;28;20450;-66
2022/08/14 03:52:18;;;;;;;3.30;3.00;;;28.30;31.10;;;;;;4988796;28;20988;-67
2022/08/14 03:55:07;;;;;;;2.57;2.47;;;28.30;31.30;;;;;;4987784;28;20441;-66
2022/08/14 03:57:36;;;;;;;2.50;2.40;;;28.30;31.30;;;;;;4972272;28;21119;-67
2022/08/14 04:00:12;;;;;;;2.70;2.50;;;28.30;31.30;;;;;;4965096;28;20468;-66
2022/08/14 04:03:01;;;;;;;2.53;2.40;;;28.20;31.10;;;;;;4970475;28;20485;-66
2022/08/14 04:05:29;;;;;;;2.60;2.50;;;28.20;31.00;;;;;;4969731;28;20448;-66
2022/08/14 04:08:11;;;;;;;2.93;2.73;;;28.20;31.10;;;;;;4972724;28;20918;-67
2022/08/14 04:10:58;;;;;;;2.83;2.63;;;28.20;31.30;;;;;;4972491;28;20527;-66
2022/08/14 04:13:28;;;;;;;3.00;2.73;;;28.20;31.40;;;;;;4954951;28;20449;-68
2022/08/14 04:16:03;;;;;;;2.63;2.43;;;28.20;31.40;;;;;;4972321;28;20883;-67
2022/08/14 04:18:40;;;;;;;2.40;2.30;;;28.20;31.50;;;;;;4972334;28;20501;-67
2022/08/14 04:21:10;;;;;;;3.43;2.73;;;28.20;31.50;;;;;;4977389;28;20997;-67
2022/08/14 04:23:39;;;;;;;2.90;2.70;;;28.20;31.50;;;;;;4961763;28;20497;-66
2022/08/14 04:26:10;;;;;;;2.77;2.53;;;28.20;31.60;;;;;;4958501;28;20472;-66
2022/08/14 04:28:54;;;;;;;2.67;2.57;;;28.20;31.60;;;;;;4971526;28;20450;-67
2022/08/14 04:31:42;;;;;;;2.80;2.60;;;28.20;31.60;;;;;;4964274;28;20858;-67
2022/08/14 04:34:32;;;;;;;2.47;2.37;;;28.10;31.50;;;;;;4965126;28;20444;-67
2022/08/14 04:45:35;;;;;;;2.43;2.30;;;28.10;31.60;;;;;;4972001;28;21035;-66
2022/08/14 04:48:14;;;;;;;2.43;2.23;;;28.10;31.70;;;;;;4970259;28;20446;-66
2022/08/14 04:51:04;;;;;;;2.90;2.70;;;28.10;31.70;;;;;;4987665;28;20556;-66
2022/08/14 04:53:35;;;;;;;2.83;2.63;;;28.10;31.70;;;;;;4980063;28;20873;-66
2022/08/14 04:56:11;;;;;;;2.87;2.60;;;28.10;31.70;;;;;;4990130;28;20561;-66
2022/08/14 04:59:04;;;;;;;2.77;2.57;;;28.10;31.80;;;;;;4969392;28;20503;-65
2022/08/14 05:01:43;;;;;;;2.20;2.10;;;28.10;31.80;;;;;;4970972;28;20577;-66
2022/08/14 05:04:20;;;;;;;6.00;2.50;;;28.00;31.70;;;;;;4987343;28;20457;-66
2022/08/14 05:06:51;;;;;;;2.80;2.60;;;28.00;31.70;;;;;;4980745;28;20600;-67
2022/08/14 05:09:22;;;;;;;2.40;2.20;;;28.00;31.70;;;;;;4978044;28;20484;-65
2022/08/14 05:11:51;;;;;;;2.50;2.40;;;28.00;31.70;;;;;;4971350;28;20501;-67
2022/08/14 05:14:22;;;;;;;2.60;2.40;;;28.00;31.80;;;;;;4966948;28;21000;-67
2022/08/14 05:17:10;;;;;;;3.30;2.70;;;28.00;31.70;;;;;;4981025;28;20548;-67
2022/08/14 05:19:41;;;;;;;2.73;2.53;;;28.00;31.80;;;;;;4976563;28;21084;-67
2022/08/14 05:22:29;;;;;;;3.03;2.83;;;28.00;31.60;;;;;;4981168;28;20473;-66
2022/08/14 05:24:58;;;;;;;3.40;3.20;;;28.00;31.70;;;;;;4977385;28;20457;-66
2022/08/14 05:27:26;;;;;;;2.90;2.70;;;28.00;31.70;;;;;;4966013;28;21158;-67
2022/08/14 05:30:00;;;;;;;3.20;2.90;;;28.00;31.80;;;;;;4986987;28;20668;-66
2022/08/14 05:32:29;;;;;;;5.63;3.00;;;28.00;32.10;;;;;;4969181;28;20465;-67
2022/08/14 05:34:59;;;;;;;3.93;3.53;;;27.90;32.00;;;;;;4986469;28;20481;-66
2022/08/14 05:37:29;;;;;;;3.60;3.30;;;27.90;31.90;;;;;;4971986;28;20477;-67
2022/08/14 05:40:01;;;;;;;3.57;3.37;;;27.80;31.90;;;;;;4982161;28;20473;-66
2022/08/14 05:42:29;;;;;;;3.73;3.53;;;27.80;31.80;;;;;;4982967;28;20477;-66
2022/08/14 05:45:02;;;;;;;4.10;3.80;;;27.70;31.50;;;;;;4971991;28;20450;-66
2022/08/14 05:47:32;;;;;;;3.60;3.30;;;27.70;31.60;;;;;;4971319;28;20573;-66
2022/08/14 05:50:11;;;;;;;4.20;3.90;;;27.70;31.70;;;;;;4966965;28;20540;-67
2022/08/14 05:52:48;;;;;;;4.00;3.70;;;27.60;31.40;;;;;;4947575;28;20474;-67
2022/08/14 05:55:17;;;;;;;4.27;3.87;;;27.60;32.80;;;;;;4970969;28;20441;-66
2022/08/14 05:57:52;;;;;;;4.37;3.97;;;27.60;31.80;;;;;;4965685;28;20485;-66
2022/08/14 06:00:23;;;;;;;4.60;4.30;;;27.60;31.60;;;;;;4966231;28;20862;-66
2022/08/14 06:02:57;;;;;;;4.40;4.00;;;27.60;31.40;;;;;;4968778;28;20939;-67
2022/08/14 06:05:29;;;;;;;4.27;3.87;;;27.60;31.60;;;;;;4964179;28;20450;-66
2022/08/14 06:08:03;;;;;;;3.83;3.63;;;27.60;31.40;;;;;;4977128;28;20445;-66
2022/08/14 06:10:53;;;;;;;4.30;4.00;;;27.50;31.60;;;;;;4966201;28;20521;-65
2022/08/14 06:13:23;;;;;;;4.80;4.43;;;27.50;31.90;;;;;;4974961;28;20500;-67
2022/08/14 06:15:59;;;;;;;4.60;4.30;;;27.50;31.80;;;;;;4970061;28;20476;-67
2022/08/14 06:18:27;;;;;;;4.67;4.37;;;27.50;31.80;;;;;;4972125;28;20465;-65
2022/08/14 06:21:01;;;;;;;4.27;3.97;;;27.50;32.00;;;;;;4953884;28;20466;-67
2022/08/14 06:23:29;;;;;;;4.30;4.00;;;27.50;31.90;;;;;;4974208;28;20607;-66
2022/08/14 06:25:58;;;;;;;4.00;3.80;;;27.50;32.20;;;;;;4974234;28;20444;-66
2022/08/14 06:28:27;;;;;;;4.40;4.10;;;27.50;32.10;;;;;;4987311;28;20444;-67
2022/08/14 06:30:56;;;;;;;4.77;4.43;;;27.50;32.30;;;;;;4972120;28;20855;-65
2022/08/14 06:33:24;;;;;;;4.43;4.03;;;27.50;32.30;;;;;;4972222;28;20445;-66
2022/08/14 06:36:18;;;;;;;4.50;4.10;;;27.40;32.30;;;;;;4983434;28;20879;-67
2022/08/14 06:38:47;;;;;;;4.43;4.13;;;27.40;32.50;;;;;;4974264;28;20474;-67
2022/08/14 06:41:17;;;;;;;5.23;4.73;;;27.50;32.60;;;;;;4973569;28;20536;-66
2022/08/14 06:43:54;;;;;;;4.87;4.53;;;27.50;32.60;;;;;;4963516;28;20534;-66
2022/08/14 06:46:23;;;;;;;4.97;4.60;;;27.50;32.70;;;;;;4973285;28;20430;-66
2022/08/14 06:49:04;;;;;;;4.90;4.50;;;27.60;32.50;;;;;;4971390;28;20471;-66
2022/08/14 06:51:34;;;;;;;5.83;5.00;;;27.70;32.50;;;;;;4973448;28;20465;-66
2022/08/14 06:54:12;;;;;;;4.73;4.43;;;27.70;32.10;;;;;;4970809;28;20440;-66
2022/08/14 06:56:43;;;;;;;5.57;5.23;;;27.80;32.40;;;;;;4972177;28;20453;-64
2022/08/14 06:59:24;;;;;;;5.30;4.90;;;27.90;32.10;;;;;;4974646;28;20497;-67
2022/08/14 07:07:52;;;;;;;4.57;4.27;;;28.00;31.80;;;;;;4953081;28;21045;-70
2022/08/14 07:10:21;;;;;;;5.00;4.70;;;27.90;32.00;;;;;;4947581;28;20436;-69
2022/08/14 07:12:53;;;;;;;5.00;4.63;;;27.80;32.10;;;;;;4913565;29;20487;-70
2022/08/14 07:15:32;;;;;;;5.20;4.70;;;27.70;32.30;;;;;;4928301;29;20999;-70
2022/08/14 07:18:10;;;;;;;5.30;4.90;;;27.70;32.40;;;;;;4913112;29;20797;-70
2022/08/14 07:20:41;;;;;;;5.20;4.80;;;27.60;32.50;;;;;;4931107;29;20509;-70
2022/08/14 07:23:11;;;;;;;4.80;4.40;;;27.60;32.60;;;;;;4914706;29;20965;-70
2022/08/14 07:25:48;;;;;;;4.87;4.57;;;27.60;32.70;;;;;;4914597;29;20437;-70
2022/08/14 07:28:23;;;;;;;4.57;4.17;;;27.60;32.70;;;;;;4907184;29;20438;-70
2022/08/14 07:30:56;;;;;;;4.77;4.47;;;27.60;32.80;;;;;;4921360;29;20793;-70
2022/08/14 07:33:35;;;;;;;4.60;4.20;;;27.60;32.90;;;;;;4908162;29;21272;-70
2022/08/14 07:36:06;;;;;;;4.70;4.40;;;27.60;32.90;;;;;;4928726;29;20444;-70
2022/08/14 07:38:55;;;;;;;4.47;4.17;;;27.60;32.90;;;;;;4928980;29;20811;-72
2022/08/14 07:41:24;;;;;;;4.90;4.50;;;27.60;33.00;;;;;;4912037;29;20498;-69
2022/08/14 07:44:01;;;;;;;4.73;4.43;;;27.60;33.00;;;;;;4926626;29;20453;-70
2022/08/14 07:46:50;;;;;;;5.30;4.90;;;27.60;33.10;;;;;;4924675;29;20912;-69
2022/08/14 07:49:19;;;;;;;5.60;5.20;;;27.60;33.10;;;;;;4926262;29;20497;-69
2022/08/14 07:51:51;;;;;;;5.40;5.00;;;27.60;33.50;;;;;;4911693;29;20466;-70
2022/08/14 07:54:21;;;;;;;5.50;5.00;;;27.50;34.20;;;;;;4912518;29;20789;-71
2022/08/14 07:56:58;;;;;;;7.23;6.20;;;27.50;35.90;;;;;;4909128;29;20482;-71
2022/08/14 07:59:28;;;;;;;5.33;4.93;;;27.40;35.80;;;;;;4925463;29;20977;-71
2022/08/14 08:02:11;;;;;;;6.17;5.57;;;27.40;35.50;;;;;;4926127;28;20484;-71
2022/08/14 08:04:49;;;;;;;5.73;5.23;;;27.40;35.20;;;;;;4926268;29;20457;-71
2022/08/14 08:07:22;;;;;;;6.50;6.00;;;27.40;35.10;;;;;;4911237;29;20955;-71
2022/08/14 08:09:56;;;;;;;6.10;5.60;;;27.50;35.00;;;;;;4928591;29;20795;-71
2022/08/14 08:12:25;;;;;;;5.67;5.17;;;27.50;35.00;;;;;;4910936;29;20489;-71
2022/08/14 08:15:01;;;;;;;5.83;5.43;;;27.50;34.80;;;;;;4912255;29;20885;-71
2022/08/14 08:17:36;;;;;;;6.47;5.87;;;27.50;34.80;;;;;;4919024;29;20988;-71
2022/08/14 08:20:09;;;;;;;5.20;4.80;;;27.60;34.60;;;;;;4925699;29;20481;-71
2022/08/14 08:22:41;;;;;;;5.37;5.07;;;27.50;34.50;;;;;;4910525;29;20488;-71
2022/08/14 08:25:18;;;;;;;5.37;4.97;;;27.60;34.50;;;;;;4921340;29;20453;-71
2022/08/14 08:27:58;;;;;;;5.43;5.13;;;27.60;34.50;;;;;;4926955;29;20997;-71
2022/08/14 08:30:27;;;;;;;5.63;5.23;;;27.60;34.50;;;;;;4911497;29;20979;-71
2022/08/14 08:33:00;;;;;;;5.60;5.20;;;27.60;34.50;;;;;;4912398;29;20556;-71
2022/08/14 08:35:32;;;;;;;5.97;5.47;;;27.60;34.40;;;;;;4936276;29;20882;-71
2022/08/14 08:38:20;;;;;;;5.60;5.20;;;27.60;34.40;;;;;;4906904;29;20506;-71
2022/08/14 08:41:10;;;;;;;4.97;4.67;;;27.60;34.40;;;;;;4928178;29;20477;-71
2022/08/14 08:43:40;;;;;;;6.03;5.60;;;27.60;34.40;;;;;;4926160;29;20533;-71
2022/08/14 08:46:21;;;;;;;6.07;5.67;;;27.60;34.40;;;;;;4927316;29;20453;-71
2022/08/14 08:48:53;;;;;;;6.03;5.53;;;27.60;34.40;;;;;;4911108;29;20472;-71
2022/08/14 08:51:22;;;;;;;5.83;5.33;;;27.60;34.40;;;;;;4911010;29;20870;-71
2022/08/14 08:53:59;;;;;;;5.37;5.07;;;27.60;34.50;;;;;;4911441;29;20455;-71
2022/08/14 08:56:41;;;;;;;5.10;4.80;;;27.60;34.50;;;;;;4926887;29;20803;-71
2022/08/14 08:59:18;;;;;;;5.93;5.50;;;27.60;34.40;;;;;;4921206;29;20473;-71
2022/08/14 09:01:50;;;;;;;5.73;5.33;;;27.60;34.40;;;;;;4922818;29;21048;-71
2022/08/14 09:04:23;;;;;;;5.40;5.00;;;27.60;34.50;;;;;;4909932;29;20464;-71
2022/08/14 09:06:54;;;;;;;5.20;4.80;;;27.60;34.40;;;;;;4910307;29;20489;-71
2022/08/14 09:09:50;;;;;;;5.23;4.83;;;27.60;34.50;;;;;;4911016;29;20437;-71
2022/08/14 09:12:28;;;;;;;6.50;6.10;;;27.60;34.40;;;;;;4894214;29;20481;-71
2022/08/14 09:15:14;;;;;;;5.53;5.13;;;27.60;34.50;;;;;;4911687;29;20465;-71
2022/08/14 09:17:45;;;;;;;5.43;5.03;;;27.60;34.50;;;;;;4911049;28;20473;-71
2022/08/14 09:20:17;;;;;;;5.70;5.30;;;27.60;34.50;;;;;;4909940;29;20846;-71
2022/08/14 09:22:59;;;;;;;5.87;5.37;;;27.60;34.50;;;;;;4926018;29;20469;-71
2022/08/14 09:25:27;;;;;;;5.50;5.00;;;27.60;34.50;;;;;;4911942;29;20524;-71
2022/08/14 09:28:18;;;;;;;5.50;5.03;;;27.60;34.50;;;;;;4919772;29;20806;-71
2022/08/14 09:30:54;;;;;;;5.30;5.00;;;27.60;34.50;;;;;;4910451;29;20528;-71
2022/08/14 09:33:50;;;;;;;5.63;5.23;;;27.60;34.50;;;;;;4913028;29;20544;-71
2022/08/14 09:36:43;;;;;;;5.67;5.27;;;27.60;34.50;;;;;;4904442;29;20472;-71
2022/08/14 09:39:24;;;;;;;5.57;5.07;;;27.60;34.50;;;;;;4904886;29;20500;-71
2022/08/14 09:42:14;;;;;;;5.40;5.03;;;27.60;34.60;;;;;;4925071;28;20485;-71
2022/08/14 09:45:14;;;;;;;4.77;4.40;;;27.60;34.50;;;;;;4910514;29;20441;-71
2022/08/14 09:47:46;;;;;;;4.97;4.57;;;27.60;34.50;;;;;;4912180;29;20476;-71
2022/08/14 09:50:22;;;;;;;5.60;5.20;;;27.60;34.50;;;;;;4924645;29;20543;-71
2022/08/14 09:52:56;;;;;;;5.07;4.70;;;27.60;34.50;;;;;;4908395;29;20992;-71
2022/08/14 09:55:32;;;;;;;5.53;5.13;;;27.60;34.50;;;;;;4910655;29;20891;-71
2022/08/14 09:58:11;;;;;;;4.67;4.30;;;27.60;34.50;;;;;;4907892;29;20466;-71
2022/08/14 10:00:50;;;;;;;5.60;5.20;;;27.60;34.50;;;;;;4910798;29;20473;-71
2022/08/14 10:03:32;;;;;;;5.47;5.07;;;27.60;34.50;;;;;;4909558;29;20449;-71
2022/08/14 10:06:10;;;;;;;5.53;5.13;;;27.60;34.50;;;;;;4909324;29;20445;-71
2022/08/14 10:08:49;;;;;;;5.17;4.87;;;27.60;34.50;;;;;;4922750;29;20828;-71
2022/08/14 10:11:21;;;;;;;5.50;5.10;;;27.60;34.50;;;;;;4925470;29;20826;-71
2022/08/14 10:13:53;;;;;;;5.20;4.80;;;27.60;34.50;;;;;;4925006;29;20457;-71
2022/08/14 10:16:28;;;;;;;5.40;5.00;;;27.60;34.50;;;;;;4911084;29;20899;-71
2022/08/14 10:19:05;;;;;;;5.40;4.13;;;27.60;34.50;;;;;;4908877;29;20453;-71
2022/08/14 10:21:37;;;;;;;5.07;4.67;;;27.60;34.50;;;;;;4925124;29;20492;-71
2022/08/14 10:24:29;;;;;;;5.10;4.70;;;27.60;34.50;;;;;;4889739;29;20477;-71
2022/08/14 10:27:05;;;;;;;5.10;4.73;;;27.60;34.50;;;;;;4909184;29;20489;-71
2022/08/14 10:29:36;;;;;;;4.97;4.67;;;27.60;34.40;;;;;;4925052;29;20461;-71
2022/08/14 10:32:10;;;;;;;5.53;5.13;;;27.60;34.40;;;;;;4908532;29;20512;-71
2022/08/14 10:34:46;;;;;;;4.93;4.63;;;27.60;34.50;;;;;;4925656;29;20471;-71
2022/08/14 10:37:20;;;;;;;5.33;4.97;;;27.60;34.40;;;;;;4907379;29;20480;-71
2022/08/14 10:40:00;;;;;;;5.97;5.47;;;27.60;34.40;;;;;;4907526;29;20456;-71
2022/08/14 10:42:39;;;;;;;4.87;4.57;;;27.60;34.00;;;;;;4919660;29;20541;-71
2022/08/14 10:45:20;;;;;;;5.23;4.73;;;27.70;34.00;;;;;;4922961;29;20844;-71
2022/08/14 10:47:52;;;;;;;5.70;5.20;;;27.60;34.00;;;;;;4908002;28;20591;-71
2022/08/14 10:50:44;;;;;;;5.17;4.70;;;27.70;34.30;;;;;;4906962;29;20456;-71
2022/08/14 10:53:14;;;;;;;5.60;5.20;;;27.70;35.30;;;;;;4901336;29;20461;-71
2022/08/14 10:55:47;;;;;;;5.80;5.30;;;27.70;34.10;;;;;;4928849;29;20456;-71
2022/08/14 10:58:28;;;;;;;5.27;4.87;;;27.70;34.00;;;;;;4925931;29;21027;-71
2022/08/14 11:01:04;;;;;;;4.90;4.50;;;27.70;33.90;;;;;;4924868;29;20465;-71
2022/08/14 11:03:42;;;;;;;5.10;4.60;;;27.70;33.90;;;;;;4911552;29;20492;-71
2022/08/14 11:06:24;;;;;;;4.77;4.47;;;27.60;33.90;;;;;;4922949;29;20481;-71
2022/08/14 11:08:55;;;;;;;4.33;4.03;;;27.60;33.70;;;;;;4911730;29;20467;-71
2022/08/14 11:11:26;;;;;;;4.50;4.20;;;27.60;33.70;;;;;;4925181;29;20473;-71
2022/08/14 11:14:06;;;;;;;4.70;4.30;;;27.60;33.70;;;;;;4911770;29;20551;-71
2022/08/14 11:16:39;;;;;;;4.60;4.30;;;27.60;33.60;;;;;;4925609;29;21076;-71
2022/08/14 11:19:11;;;;;;;7.17;4.73;;;27.60;33.80;;;;;;4926543;29;20449;-71
2022/08/14 11:21:43;;;;;;;5.47;5.07;;;27.70;33.60;;;;;;4917295;29;21350;-71
2022/08/14 11:24:15;;;;;;;4.23;3.90;;;27.70;33.70;;;;;;4906113;29;20442;-71
2022/08/14 11:27:05;;;;;;;5.00;4.60;;;27.70;33.60;;;;;;4915188;28;20464;-71
2022/08/14 11:29:35;;;;;;;4.97;4.67;;;27.70;33.70;;;;;;4912177;29;20457;-71
2022/08/14 11:32:06;;;;;;;5.13;4.63;;;27.70;33.70;;;;;;4925745;28;20465;-71
2022/08/14 11:34:38;;;;;;;5.30;4.90;;;27.70;33.70;;;;;;4895438;29;20493;-71
2022/08/14 11:37:10;;;;;;;3.63;3.43;;;27.70;33.70;;;;;;4927767;28;20476;-71
2022/08/14 11:39:54;;;;;;;4.67;4.27;;;27.70;33.70;;;;;;4910549;29;20453;-71
2022/08/14 11:42:27;;;;;;;5.00;4.60;;;27.70;33.70;;;;;;4908886;28;20517;-71
2022/08/14 11:45:16;;;;;;;4.43;4.03;;;27.70;33.70;;;;;;4927365;29;20451;-71
2022/08/14 11:47:51;;;;;;;4.80;4.50;;;27.70;33.70;;;;;;4921466;28;20497;-71
2022/08/14 11:50:41;;;;;;;4.70;4.23;;;27.70;33.60;;;;;;4910936;29;20964;-71
2022/08/14 11:53:21;;;;;;;4.53;4.23;;;27.70;33.70;;;;;;4910070;29;20445;-70
2022/08/14 11:55:56;;;;;;;4.73;4.33;;;27.70;33.60;;;;;;4927882;29;20437;-71
2022/08/14 11:58:28;;;;;;;4.90;4.50;;;27.70;33.50;;;;;;4919635;29;20449;-71
2022/08/14 12:01:03;;;;;;;4.10;3.80;;;27.70;33.60;;;;;;4912414;29;20666;-71
2022/08/14 12:03:36;;;;;;;4.90;4.60;;;27.70;33.50;;;;;;4900350;29;20536;-71
2022/08/14 12:06:22;;;;;;;4.47;4.20;;;27.70;33.50;;;;;;4909824;29;20794;-71
2022/08/14 12:09:06;;;;;;;4.10;3.90;;;27.70;33.40;;;;;;4930551;29;20453;-71
2022/08/14 12:11:44;;;;;;;5.13;4.77;;;27.70;33.40;;;;;;4923553;29;20480;-70
2022/08/14 12:14:21;;;;;;;4.80;4.50;;;27.70;33.40;;;;;;4915281;29;20444;-71
2022/08/14 12:17:05;;;;;;;4.07;3.77;;;27.70;33.50;;;;;;4929330;28;20481;-71
2022/08/14 12:19:48;;;;;;;4.80;4.50;;;27.70;33.50;;;;;;4940261;29;20560;-71
2022/08/14 12:22:32;;;;;;;5.10;4.53;;;27.70;33.40;;;;;;4935420;28;20741;-71
2022/08/14 12:25:02;;;;;;;4.60;4.30;;;27.70;33.40;;;;;;4912560;29;20469;-71
2022/08/14 12:27:40;;;;;;;5.50;5.00;;;27.70;33.30;;;;;;4916314;29;20485;-71
2022/08/14 12:30:32;;;;;;;4.53;4.13;;;27.70;33.30;;;;;;4926656;29;20536;-71
2022/08/14 12:33:24;;;;;;;4.60;4.30;;;27.70;33.30;;;;;;4929249;28;20464;-71
2022/08/14 12:36:01;;;;;;;4.43;4.13;;;27.70;33.20;;;;;;4918392;29;20449;-71
2022/08/14 12:38:40;;;;;;;5.13;4.73;;;27.70;33.20;;;;;;4909332;29;20540;-71
2022/08/14 12:41:14;;;;;;;3.80;3.50;;;27.70;33.20;;;;;;4924216;29;20472;-71
2022/08/14 12:43:50;;;;;;;4.40;4.10;;;27.70;33.20;;;;;;4922271;29;20914;-71
2022/08/14 12:46:24;;;;;;;4.40;4.00;;;27.80;33.30;;;;;;4915507;29;20991;-71
2022/08/14 12:48:57;;;;;;;3.97;3.73;;;27.80;33.30;;;;;;4919139;29;20935;-71
2022/08/14 12:51:28;;;;;;;4.57;4.27;;;27.80;33.40;;;;;;4910276;29;20493;-71
2022/08/14 12:54:00;;;;;;;4.30;4.00;;;27.80;33.30;;;;;;4936226;29;20438;-71
2022/08/14 12:56:30;;;;;;;4.13;3.83;;;27.80;33.30;;;;;;4925553;29;20441;-71
2022/08/14 12:59:01;;;;;;;4.60;4.20;;;27.80;33.30;;;;;;4929447;29;20445;-71
2022/08/14 13:01:32;;;;;;;4.73;4.33;;;27.80;33.30;;;;;;4918022;29;20535;-71
2022/08/14 13:04:21;;;;;;;4.50;4.20;;;27.80;33.30;;;;;;4974262;23;20939;-72
2022/08/14 13:06:51;;;;;;;5.00;4.70;;;27.80;33.40;;;;;;4989162;28;20465;-72
2022/08/14 13:09:26;;;;;;;4.37;4.17;;;27.80;33.30;;;;;;4981889;28;20854;-72
2022/08/14 13:12:05;;;;;;;4.10;3.73;;;27.80;33.30;;;;;;4985728;28;20484;-72
2022/08/14 13:14:58;;;;;;;4.40;4.10;;;27.80;33.40;;;;;;4994219;28;20706;-72
2022/08/14 13:17:28;;;;;;;4.90;4.60;;;27.80;33.30;;;;;;4998613;28;20468;-72
2022/08/14 13:20:05;;;;;;;4.40;4.10;;;27.80;33.30;;;;;;4999925;28;20860;-72
2022/08/14 13:22:41;;;;;;;4.77;4.47;;;27.90;33.30;;;;;;4999777;28;20499;-72
2022/08/14 13:25:14;;;;;;;4.53;4.27;;;27.90;33.30;;;;;;4981997;28;20862;-72
2022/08/14 13:27:45;;;;;;;5.20;4.83;;;27.90;33.40;;;;;;4982903;28;20478;-72
2022/08/14 13:30:23;;;;;;;4.37;4.07;;;27.90;33.40;;;;;;4978434;28;20947;-72
2022/08/14 13:32:53;;;;;;;4.97;4.67;;;27.90;33.30;;;;;;4984893;28;20533;-71
2022/08/14 13:35:25;;;;;;;4.50;4.20;;;27.90;33.40;;;;;;4995204;28;20974;-72
2022/08/14 13:37:54;;;;;;;4.50;4.20;;;27.90;33.40;;;;;;4986339;28;20473;-71
2022/08/14 13:40:26;;;;;;;4.83;4.63;;;27.90;33.50;;;;;;4981957;28;20457;-72
2022/08/14 13:42:55;;;;;;;4.73;4.33;;;27.90;33.30;;;;;;4980412;28;20473;-72
2022/08/14 13:45:25;;;;;;;4.40;4.20;;;27.90;33.30;;;;;;4986453;28;20446;-72
2022/08/14 13:48:15;;;;;;;4.37;4.07;;;27.90;33.30;;;;;;4989436;28;20492;-72
2022/08/14 13:51:03;;;;;;;4.60;4.30;;;27.90;33.30;;;;;;5007834;28;20526;-72
2022/08/14 13:53:36;;;;;;;4.47;4.17;;;27.90;33.30;;;;;;4983858;28;20439;-72